sensor_id;sensor_type;location;lat;lon;timestamp;P1;durP1;ratioP1;P2;durP2;ratioP2
37983;SDS011;61733;50.882;4.376;2022-08-19T00:02:25;14.95;;;9.93;;
37983;SDS011;61733;50.882;4.376;2022-08-19T00:04:50;10.73;;;8.30;;
37983;SDS011;61733;50.882;4.376;2022-08-19T00:07:20;10.35;;;8.13;;
37983;SDS011;61733;50.882;4.376;2022-08-19T00:09:46;14.18;;;8.57;;
37983;SDS011;61733;50.882;4.376;2022-08-19T00:12:12;12.98;;;10.70;;
37983;SDS011;61733;50.882;4.376;2022-08-19T00:14:38;26.00;;;18.58;;
37983;SDS011;61733;50.882;4.376;2022-08-19T00:17:06;19.23;;;13.57;;
37983;SDS011;61733;50.882;4.376;2022-08-19T00:19:34;26.48;;;17.52;;
37983;SDS011;61733;50.882;4.376;2022-08-19T00:22:03;24.92;;;19.00;;
37983;SDS011;61733;50.882;4.376;2022-08-19T00:24:30;20.13;;;15.27;;
37983;SDS011;61733;50.882;4.376;2022-08-19T00:26:57;19.15;;;15.02;;
37983;SDS011;61733;50.882;4.376;2022-08-19T00:29:24;29.30;;;21.92;;
37983;SDS011;61733;50.882;4.376;2022-08-19T00:31:51;35.85;;;24.33;;
37983;SDS011;61733;50.882;4.376;2022-08-19T00:34:21;31.83;;;23.20;;
37983;SDS011;61733;50.882;4.376;2022-08-19T00:39:19;38.80;;;26.15;;
37983;SDS011;61733;50.882;4.376;2022-08-19T00:41:45;41.85;;;28.33;;
37983;SDS011;61733;50.882;4.376;2022-08-19T00:44:19;41.17;;;25.08;;
37983;SDS011;61733;50.882;4.376;2022-08-19T00:46:48;34.50;;;25.02;;
37983;SDS011;61733;50.882;4.376;2022-08-19T00:49:24;39.83;;;27.27;;
37983;SDS011;61733;50.882;4.376;2022-08-19T00:51:54;46.72;;;30.13;;
37983;SDS011;61733;50.882;4.376;2022-08-19T00:54:25;46.28;;;30.20;;
37983;SDS011;61733;50.882;4.376;2022-08-19T00:56:51;57.75;;;34.08;;
37983;SDS011;61733;50.882;4.376;2022-08-19T00:59:18;41.95;;;29.48;;
37983;SDS011;61733;50.882;4.376;2022-08-19T01:01:44;52.47;;;35.97;;
37983;SDS011;61733;50.882;4.376;2022-08-19T01:04:12;49.35;;;34.90;;
37983;SDS011;61733;50.882;4.376;2022-08-19T01:06:41;42.95;;;30.48;;
37983;SDS011;61733;50.882;4.376;2022-08-19T01:09:08;61.03;;;38.15;;
37983;SDS011;61733;50.882;4.376;2022-08-19T01:11:36;56.40;;;39.63;;
37983;SDS011;61733;50.882;4.376;2022-08-19T01:14:06;58.47;;;38.07;;
37983;SDS011;61733;50.882;4.376;2022-08-19T01:16:34;61.08;;;40.95;;
37983;SDS011;61733;50.882;4.376;2022-08-19T01:19:02;62.90;;;42.20;;
37983;SDS011;61733;50.882;4.376;2022-08-19T01:24:08;59.90;;;39.13;;
37983;SDS011;61733;50.882;4.376;2022-08-19T01:26:38;61.28;;;38.60;;
37983;SDS011;61733;50.882;4.376;2022-08-19T01:29:06;58.63;;;37.00;;
37983;SDS011;61733;50.882;4.376;2022-08-19T01:31:33;54.05;;;36.72;;
37983;SDS011;61733;50.882;4.376;2022-08-19T01:34:00;58.72;;;37.35;;
37983;SDS011;61733;50.882;4.376;2022-08-19T01:36:31;51.58;;;35.50;;
37983;SDS011;61733;50.882;4.376;2022-08-19T01:38:59;45.70;;;30.65;;
37983;SDS011;61733;50.882;4.376;2022-08-19T01:41:25;45.75;;;32.03;;
37983;SDS011;61733;50.882;4.376;2022-08-19T01:43:53;47.58;;;33.05;;
37983;SDS011;61733;50.882;4.376;2022-08-19T01:46:21;56.88;;;35.38;;
37983;SDS011;61733;50.882;4.376;2022-08-19T01:48:47;52.17;;;34.17;;
37983;SDS011;61733;50.882;4.376;2022-08-19T01:51:13;48.92;;;33.83;;
37983;SDS011;61733;50.882;4.376;2022-08-19T01:53:38;56.55;;;34.13;;
37983;SDS011;61733;50.882;4.376;2022-08-19T01:56:05;49.78;;;33.55;;
37983;SDS011;61733;50.882;4.376;2022-08-19T01:58:34;51.88;;;32.45;;
37983;SDS011;61733;50.882;4.376;2022-08-19T02:01:05;45.13;;;29.75;;
37983;SDS011;61733;50.882;4.376;2022-08-19T02:03:32;47.50;;;30.50;;
37983;SDS011;61733;50.882;4.376;2022-08-19T02:06:00;44.53;;;30.48;;
37983;SDS011;61733;50.882;4.376;2022-08-19T02:08:31;51.13;;;30.40;;
37983;SDS011;61733;50.882;4.376;2022-08-19T02:10:58;52.50;;;29.98;;
37983;SDS011;61733;50.882;4.376;2022-08-19T02:13:26;38.85;;;28.17;;
37983;SDS011;61733;50.882;4.376;2022-08-19T02:15:53;41.58;;;26.45;;
37983;SDS011;61733;50.882;4.376;2022-08-19T02:18:18;34.35;;;25.55;;
37983;SDS011;61733;50.882;4.376;2022-08-19T02:20:44;40.72;;;25.92;;
37983;SDS011;61733;50.882;4.376;2022-08-19T02:23:12;37.17;;;22.42;;
37983;SDS011;61733;50.882;4.376;2022-08-19T02:25:38;38.97;;;23.17;;
37983;SDS011;61733;50.882;4.376;2022-08-19T02:28:05;33.47;;;22.83;;
37983;SDS011;61733;50.882;4.376;2022-08-19T02:30:31;32.47;;;22.52;;
37983;SDS011;61733;50.882;4.376;2022-08-19T02:32:57;30.58;;;20.55;;
37983;SDS011;61733;50.882;4.376;2022-08-19T02:35:23;29.73;;;21.95;;
37983;SDS011;61733;50.882;4.376;2022-08-19T02:37:49;27.38;;;21.55;;
37983;SDS011;61733;50.882;4.376;2022-08-19T02:40:34;30.50;;;22.48;;
37983;SDS011;61733;50.882;4.376;2022-08-19T02:43:02;35.65;;;21.98;;
37983;SDS011;61733;50.882;4.376;2022-08-19T02:45:33;31.23;;;21.48;;
37983;SDS011;61733;50.882;4.376;2022-08-19T02:48:00;32.22;;;22.67;;
37983;SDS011;61733;50.882;4.376;2022-08-19T02:50:26;34.20;;;23.02;;
37983;SDS011;61733;50.882;4.376;2022-08-19T02:52:52;28.63;;;19.70;;
37983;SDS011;61733;50.882;4.376;2022-08-19T02:55:18;36.13;;;21.98;;
37983;SDS011;61733;50.882;4.376;2022-08-19T02:57:46;32.72;;;23.05;;
37983;SDS011;61733;50.882;4.376;2022-08-19T03:00:12;36.38;;;22.33;;
37983;SDS011;61733;50.882;4.376;2022-08-19T03:02:39;35.03;;;23.65;;
37983;SDS011;61733;50.882;4.376;2022-08-19T03:05:06;37.20;;;22.10;;
37983;SDS011;61733;50.882;4.376;2022-08-19T03:07:34;44.50;;;22.45;;
37983;SDS011;61733;50.882;4.376;2022-08-19T03:10:01;31.38;;;20.83;;
37983;SDS011;61733;50.882;4.376;2022-08-19T03:12:28;30.73;;;21.63;;
37983;SDS011;61733;50.882;4.376;2022-08-19T03:14:53;34.80;;;21.38;;
37983;SDS011;61733;50.882;4.376;2022-08-19T03:17:19;31.67;;;18.58;;
37983;SDS011;61733;50.882;4.376;2022-08-19T03:19:45;37.63;;;21.15;;
37983;SDS011;61733;50.882;4.376;2022-08-19T03:22:11;34.35;;;19.33;;
37983;SDS011;61733;50.882;4.376;2022-08-19T03:24:37;34.50;;;22.40;;
37983;SDS011;61733;50.882;4.376;2022-08-19T03:27:03;33.08;;;20.42;;
37983;SDS011;61733;50.882;4.376;2022-08-19T03:29:30;33.45;;;22.05;;
37983;SDS011;61733;50.882;4.376;2022-08-19T03:32:00;46.33;;;23.48;;
37983;SDS011;61733;50.882;4.376;2022-08-19T03:34:29;33.95;;;23.17;;
37983;SDS011;61733;50.882;4.376;2022-08-19T03:36:58;27.83;;;22.17;;
37983;SDS011;61733;50.882;4.376;2022-08-19T03:39:25;32.00;;;22.40;;
37983;SDS011;61733;50.882;4.376;2022-08-19T03:41:52;34.65;;;23.13;;
37983;SDS011;61733;50.882;4.376;2022-08-19T03:44:22;36.83;;;24.60;;
37983;SDS011;61733;50.882;4.376;2022-08-19T03:46:49;35.95;;;23.65;;
37983;SDS011;61733;50.882;4.376;2022-08-19T03:49:20;35.92;;;22.95;;
37983;SDS011;61733;50.882;4.376;2022-08-19T03:51:48;35.63;;;23.10;;
37983;SDS011;61733;50.882;4.376;2022-08-19T03:54:18;33.17;;;21.65;;
37983;SDS011;61733;50.882;4.376;2022-08-19T03:56:48;31.15;;;20.63;;
37983;SDS011;61733;50.882;4.376;2022-08-19T03:59:18;35.25;;;20.00;;
37983;SDS011;61733;50.882;4.376;2022-08-19T04:04:12;34.03;;;19.90;;
37983;SDS011;61733;50.882;4.376;2022-08-19T04:06:38;37.50;;;21.42;;
37983;SDS011;61733;50.882;4.376;2022-08-19T04:09:06;29.15;;;19.52;;
37983;SDS011;61733;50.882;4.376;2022-08-19T04:11:35;28.13;;;20.77;;
37983;SDS011;61733;50.882;4.376;2022-08-19T04:14:07;30.83;;;21.17;;
37983;SDS011;61733;50.882;4.376;2022-08-19T04:16:34;36.47;;;21.15;;
37983;SDS011;61733;50.882;4.376;2022-08-19T04:19:02;35.80;;;21.92;;
37983;SDS011;61733;50.882;4.376;2022-08-19T04:21:29;33.50;;;22.20;;
37983;SDS011;61733;50.882;4.376;2022-08-19T04:23:56;35.33;;;21.83;;
37983;SDS011;61733;50.882;4.376;2022-08-19T04:26:24;42.17;;;21.55;;
37983;SDS011;61733;50.882;4.376;2022-08-19T04:28:57;34.75;;;23.48;;
37983;SDS011;61733;50.882;4.376;2022-08-19T04:31:24;39.70;;;24.20;;
37983;SDS011;61733;50.882;4.376;2022-08-19T04:33:58;41.63;;;20.13;;
37983;SDS011;61733;50.882;4.376;2022-08-19T04:36:28;45.97;;;23.27;;
37983;SDS011;61733;50.882;4.376;2022-08-19T04:38:57;33.78;;;20.83;;
37983;SDS011;61733;50.882;4.376;2022-08-19T04:41:24;31.05;;;19.55;;
37983;SDS011;61733;50.882;4.376;2022-08-19T04:44:09;34.42;;;20.92;;
37983;SDS011;61733;50.882;4.376;2022-08-19T04:46:35;38.22;;;19.08;;
37983;SDS011;61733;50.882;4.376;2022-08-19T04:49:02;33.50;;;19.90;;
37983;SDS011;61733;50.882;4.376;2022-08-19T04:51:30;39.42;;;21.27;;
37983;SDS011;61733;50.882;4.376;2022-08-19T04:53:58;33.67;;;19.52;;
37983;SDS011;61733;50.882;4.376;2022-08-19T04:56:25;38.67;;;20.50;;
37983;SDS011;61733;50.882;4.376;2022-08-19T04:58:52;46.78;;;19.50;;
37983;SDS011;61733;50.882;4.376;2022-08-19T05:01:20;40.28;;;18.13;;
37983;SDS011;61733;50.882;4.376;2022-08-19T05:03:51;32.35;;;18.77;;
37983;SDS011;61733;50.882;4.376;2022-08-19T05:06:19;34.88;;;18.83;;
37983;SDS011;61733;50.882;4.376;2022-08-19T05:08:46;30.63;;;19.80;;
37983;SDS011;61733;50.882;4.376;2022-08-19T05:11:16;30.75;;;17.20;;
37983;SDS011;61733;50.882;4.376;2022-08-19T05:13:45;34.72;;;18.45;;
37983;SDS011;61733;50.882;4.376;2022-08-19T05:16:12;32.70;;;16.95;;
37983;SDS011;61733;50.882;4.376;2022-08-19T05:18:39;38.45;;;18.63;;
37983;SDS011;61733;50.882;4.376;2022-08-19T05:21:24;26.10;;;16.02;;
37983;SDS011;61733;50.882;4.376;2022-08-19T05:24:09;36.88;;;16.42;;
37983;SDS011;61733;50.882;4.376;2022-08-19T05:26:36;28.92;;;16.40;;
37983;SDS011;61733;50.882;4.376;2022-08-19T05:29:03;26.17;;;16.77;;
37983;SDS011;61733;50.882;4.376;2022-08-19T05:31:29;29.33;;;16.20;;
37983;SDS011;61733;50.882;4.376;2022-08-19T05:33:56;35.33;;;17.33;;
37983;SDS011;61733;50.882;4.376;2022-08-19T05:36:24;43.05;;;18.42;;
37983;SDS011;61733;50.882;4.376;2022-08-19T05:38:51;40.05;;;20.50;;
37983;SDS011;61733;50.882;4.376;2022-08-19T05:41:19;34.83;;;20.85;;
37983;SDS011;61733;50.882;4.376;2022-08-19T05:43:48;31.73;;;21.27;;
37983;SDS011;61733;50.882;4.376;2022-08-19T05:46:16;38.45;;;20.73;;
37983;SDS011;61733;50.882;4.376;2022-08-19T05:48:43;35.50;;;20.92;;
37983;SDS011;61733;50.882;4.376;2022-08-19T05:51:09;35.47;;;20.83;;
37983;SDS011;61733;50.882;4.376;2022-08-19T05:53:36;28.70;;;18.58;;
37983;SDS011;61733;50.882;4.376;2022-08-19T05:56:06;35.88;;;19.35;;
37983;SDS011;61733;50.882;4.376;2022-08-19T05:58:33;33.53;;;19.40;;
37983;SDS011;61733;50.882;4.376;2022-08-19T06:01:00;27.38;;;18.08;;
37983;SDS011;61733;50.882;4.376;2022-08-19T06:03:32;29.58;;;16.33;;
37983;SDS011;61733;50.882;4.376;2022-08-19T06:05:58;34.33;;;16.48;;
37983;SDS011;61733;50.882;4.376;2022-08-19T06:08:25;28.92;;;15.88;;
37983;SDS011;61733;50.882;4.376;2022-08-19T06:10:52;29.85;;;15.27;;
37983;SDS011;61733;50.882;4.376;2022-08-19T06:13:18;30.25;;;15.02;;
37983;SDS011;61733;50.882;4.376;2022-08-19T06:15:44;31.20;;;13.85;;
37983;SDS011;61733;50.882;4.376;2022-08-19T06:18:11;33.72;;;16.35;;
37983;SDS011;61733;50.882;4.376;2022-08-19T06:20:39;22.17;;;13.93;;
37983;SDS011;61733;50.882;4.376;2022-08-19T06:23:05;24.30;;;13.18;;
37983;SDS011;61733;50.882;4.376;2022-08-19T06:25:31;27.27;;;11.95;;
37983;SDS011;61733;50.882;4.376;2022-08-19T06:27:57;26.13;;;12.40;;
37983;SDS011;61733;50.882;4.376;2022-08-19T06:30:23;23.55;;;13.35;;
37983;SDS011;61733;50.882;4.376;2022-08-19T06:32:49;25.90;;;12.30;;
37983;SDS011;61733;50.882;4.376;2022-08-19T06:35:14;21.55;;;12.02;;
37983;SDS011;61733;50.882;4.376;2022-08-19T06:37:40;22.50;;;12.07;;
37983;SDS011;61733;50.882;4.376;2022-08-19T06:40:08;20.35;;;10.60;;
37983;SDS011;61733;50.882;4.376;2022-08-19T06:42:35;24.98;;;12.27;;
37983;SDS011;61733;50.882;4.376;2022-08-19T06:45:03;13.80;;;9.90;;
37983;SDS011;61733;50.882;4.376;2022-08-19T06:47:30;15.52;;;9.73;;
37983;SDS011;61733;50.882;4.376;2022-08-19T06:49:58;23.65;;;11.38;;
37983;SDS011;61733;50.882;4.376;2022-08-19T06:52:29;21.92;;;11.35;;
37983;SDS011;61733;50.882;4.376;2022-08-19T06:54:57;21.55;;;12.85;;
37983;SDS011;61733;50.882;4.376;2022-08-19T06:57:24;17.92;;;10.63;;
37983;SDS011;61733;50.882;4.376;2022-08-19T06:59:50;17.45;;;10.13;;
37983;SDS011;61733;50.882;4.376;2022-08-19T07:02:16;16.00;;;8.95;;
37983;SDS011;61733;50.882;4.376;2022-08-19T07:04:42;24.60;;;11.23;;
37983;SDS011;61733;50.882;4.376;2022-08-19T07:07:09;23.05;;;10.07;;
37983;SDS011;61733;50.882;4.376;2022-08-19T07:09:39;28.15;;;10.65;;
37983;SDS011;61733;50.882;4.376;2022-08-19T07:12:07;23.65;;;10.45;;
37983;SDS011;61733;50.882;4.376;2022-08-19T07:14:35;21.70;;;10.82;;
37983;SDS011;61733;50.882;4.376;2022-08-19T07:17:03;23.40;;;10.80;;
37983;SDS011;61733;50.882;4.376;2022-08-19T07:19:33;15.50;;;8.35;;
37983;SDS011;61733;50.882;4.376;2022-08-19T07:22:02;19.35;;;9.48;;
37983;SDS011;61733;50.882;4.376;2022-08-19T07:24:29;16.50;;;7.85;;
37983;SDS011;61733;50.882;4.376;2022-08-19T07:26:57;15.05;;;8.20;;
37983;SDS011;61733;50.882;4.376;2022-08-19T07:29:26;16.40;;;9.10;;
37983;SDS011;61733;50.882;4.376;2022-08-19T07:31:53;18.42;;;7.82;;
37983;SDS011;61733;50.882;4.376;2022-08-19T07:34:24;11.88;;;7.20;;
37983;SDS011;61733;50.882;4.376;2022-08-19T07:36:51;14.25;;;7.93;;
37983;SDS011;61733;50.882;4.376;2022-08-19T07:39:19;15.90;;;7.28;;
37983;SDS011;61733;50.882;4.376;2022-08-19T07:41:49;22.05;;;8.57;;
37983;SDS011;61733;50.882;4.376;2022-08-19T07:44:16;20.95;;;8.02;;
37983;SDS011;61733;50.882;4.376;2022-08-19T07:46:45;11.38;;;7.80;;
37983;SDS011;61733;50.882;4.376;2022-08-19T07:49:13;15.02;;;7.82;;
37983;SDS011;61733;50.882;4.376;2022-08-19T07:51:44;18.33;;;7.00;;
37983;SDS011;61733;50.882;4.376;2022-08-19T07:54:12;15.63;;;7.10;;
37983;SDS011;61733;50.882;4.376;2022-08-19T07:56:39;15.35;;;5.93;;
37983;SDS011;61733;50.882;4.376;2022-08-19T07:59:05;14.57;;;6.13;;
37983;SDS011;61733;50.882;4.376;2022-08-19T08:01:31;10.80;;;5.82;;
37983;SDS011;61733;50.882;4.376;2022-08-19T08:03:57;23.35;;;9.13;;
37983;SDS011;61733;50.882;4.376;2022-08-19T08:06:42;12.15;;;6.47;;
37983;SDS011;61733;50.882;4.376;2022-08-19T08:09:28;14.95;;;7.20;;
37983;SDS011;61733;50.882;4.376;2022-08-19T08:12:01;22.38;;;7.05;;
37983;SDS011;61733;50.882;4.376;2022-08-19T08:14:33;14.93;;;7.00;;
37983;SDS011;61733;50.882;4.376;2022-08-19T08:17:04;15.60;;;7.22;;
37983;SDS011;61733;50.882;4.376;2022-08-19T08:19:31;18.95;;;6.32;;
37983;SDS011;61733;50.882;4.376;2022-08-19T08:21:58;12.40;;;6.55;;
37983;SDS011;61733;50.882;4.376;2022-08-19T08:24:25;9.90;;;5.72;;
37983;SDS011;61733;50.882;4.376;2022-08-19T08:26:53;17.52;;;7.65;;
37983;SDS011;61733;50.882;4.376;2022-08-19T08:29:19;15.43;;;6.60;;
37983;SDS011;61733;50.882;4.376;2022-08-19T08:31:45;14.77;;;7.47;;
37983;SDS011;61733;50.882;4.376;2022-08-19T08:34:12;14.43;;;6.13;;
37983;SDS011;61733;50.882;4.376;2022-08-19T08:36:39;14.95;;;6.15;;
37983;SDS011;61733;50.882;4.376;2022-08-19T08:39:12;7.97;;;5.88;;
37983;SDS011;61733;50.882;4.376;2022-08-19T08:47:09;7.88;;;5.32;;
37983;SDS011;61733;50.882;4.376;2022-08-19T08:49:45;10.90;;;6.82;;
37983;SDS011;61733;50.882;4.376;2022-08-19T08:52:33;22.08;;;5.65;;
37983;SDS011;61733;50.882;4.376;2022-08-19T08:55:11;12.18;;;5.60;;
37983;SDS011;61733;50.882;4.376;2022-08-19T09:00:58;10.20;;;5.38;;
37983;SDS011;61733;50.882;4.376;2022-08-19T09:06:01;13.63;;;6.13;;
37983;SDS011;61733;50.882;4.376;2022-08-19T09:11:10;10.00;;;5.85;;
37983;SDS011;61733;50.882;4.376;2022-08-19T09:16:39;13.15;;;6.25;;
37983;SDS011;61733;50.882;4.376;2022-08-19T09:19:06;16.15;;;6.50;;
37983;SDS011;61733;50.882;4.376;2022-08-19T09:21:33;12.93;;;6.07;;
37983;SDS011;61733;50.882;4.376;2022-08-19T09:24:02;12.98;;;5.72;;
37983;SDS011;61733;50.882;4.376;2022-08-19T09:26:29;17.27;;;6.13;;
37983;SDS011;61733;50.882;4.376;2022-08-19T09:28:59;11.40;;;6.63;;
37983;SDS011;61733;50.882;4.376;2022-08-19T09:31:27;17.75;;;6.72;;
37983;SDS011;61733;50.882;4.376;2022-08-19T09:33:54;14.18;;;6.57;;
37983;SDS011;61733;50.882;4.376;2022-08-19T09:36:25;11.57;;;6.20;;
37983;SDS011;61733;50.882;4.376;2022-08-19T09:38:58;14.77;;;5.47;;
37983;SDS011;61733;50.882;4.376;2022-08-19T09:41:26;16.30;;;5.13;;
37983;SDS011;61733;50.882;4.376;2022-08-19T09:43:54;9.32;;;5.28;;
37983;SDS011;61733;50.882;4.376;2022-08-19T09:46:22;8.02;;;5.05;;
37983;SDS011;61733;50.882;4.376;2022-08-19T09:48:51;14.05;;;6.47;;
37983;SDS011;61733;50.882;4.376;2022-08-19T09:51:21;8.95;;;5.93;;
37983;SDS011;61733;50.882;4.376;2022-08-19T09:53:49;9.82;;;6.85;;
37983;SDS011;61733;50.882;4.376;2022-08-19T09:56:17;10.30;;;5.57;;
37983;SDS011;61733;50.882;4.376;2022-08-19T09:58:44;11.15;;;5.57;;
37983;SDS011;61733;50.882;4.376;2022-08-19T10:01:15;9.88;;;5.45;;
37983;SDS011;61733;50.882;4.376;2022-08-19T10:03:49;10.25;;;4.25;;
37983;SDS011;61733;50.882;4.376;2022-08-19T10:06:17;5.15;;;3.92;;
37983;SDS011;61733;50.882;4.376;2022-08-19T10:08:44;6.82;;;5.00;;
37983;SDS011;61733;50.882;4.376;2022-08-19T10:11:10;10.35;;;6.57;;
37983;SDS011;61733;50.882;4.376;2022-08-19T10:13:36;8.20;;;4.70;;
37983;SDS011;61733;50.882;4.376;2022-08-19T10:16:04;8.90;;;4.57;;
37983;SDS011;61733;50.882;4.376;2022-08-19T10:18:39;6.72;;;4.65;;
37983;SDS011;61733;50.882;4.376;2022-08-19T10:21:11;9.35;;;5.40;;
37983;SDS011;61733;50.882;4.376;2022-08-19T10:23:40;11.02;;;4.95;;
37983;SDS011;61733;50.882;4.376;2022-08-19T10:26:10;6.95;;;4.68;;
37983;SDS011;61733;50.882;4.376;2022-08-19T10:28:40;16.92;;;6.35;;
37983;SDS011;61733;50.882;4.376;2022-08-19T10:31:14;7.70;;;4.88;;
37983;SDS011;61733;50.882;4.376;2022-08-19T10:33:42;7.95;;;4.10;;
37983;SDS011;61733;50.882;4.376;2022-08-19T10:36:13;8.43;;;4.28;;
37983;SDS011;61733;50.882;4.376;2022-08-19T10:38:43;17.20;;;6.30;;
37983;SDS011;61733;50.882;4.376;2022-08-19T10:41:13;15.15;;;7.25;;
37983;SDS011;61733;50.882;4.376;2022-08-19T10:43:47;18.55;;;7.40;;
37983;SDS011;61733;50.882;4.376;2022-08-19T10:46:15;10.07;;;4.53;;
37983;SDS011;61733;50.882;4.376;2022-08-19T10:48:42;9.68;;;5.93;;
37983;SDS011;61733;50.882;4.376;2022-08-19T10:51:08;11.32;;;5.88;;
37983;SDS011;61733;50.882;4.376;2022-08-19T10:53:54;10.95;;;7.20;;
37983;SDS011;61733;50.882;4.376;2022-08-19T10:56:20;10.05;;;6.10;;
37983;SDS011;61733;50.882;4.376;2022-08-19T10:59:05;14.65;;;7.05;;
37983;SDS011;61733;50.882;4.376;2022-08-19T11:01:32;14.23;;;5.35;;
37983;SDS011;61733;50.882;4.376;2022-08-19T11:04:06;18.77;;;5.88;;
37983;SDS011;61733;50.882;4.376;2022-08-19T11:06:35;16.10;;;6.70;;
37983;SDS011;61733;50.882;4.376;2022-08-19T11:09:04;5.82;;;4.65;;
37983;SDS011;61733;50.882;4.376;2022-08-19T11:11:31;10.82;;;5.35;;
37983;SDS011;61733;50.882;4.376;2022-08-19T11:14:09;13.65;;;5.38;;
37983;SDS011;61733;50.882;4.376;2022-08-19T11:16:36;8.43;;;5.93;;
37983;SDS011;61733;50.882;4.376;2022-08-19T11:19:04;9.63;;;5.97;;
37983;SDS011;61733;50.882;4.376;2022-08-19T11:21:37;12.32;;;5.43;;
37983;SDS011;61733;50.882;4.376;2022-08-19T11:24:09;8.63;;;5.32;;
37983;SDS011;61733;50.882;4.376;2022-08-19T11:26:41;7.63;;;5.57;;
37983;SDS011;61733;50.882;4.376;2022-08-19T11:29:09;12.95;;;5.38;;
37983;SDS011;61733;50.882;4.376;2022-08-19T11:31:38;11.38;;;5.22;;
37983;SDS011;61733;50.882;4.376;2022-08-19T11:34:08;9.70;;;4.00;;
37983;SDS011;61733;50.882;4.376;2022-08-19T11:36:37;8.20;;;5.20;;
37983;SDS011;61733;50.882;4.376;2022-08-19T11:39:05;11.82;;;4.60;;
37983;SDS011;61733;50.882;4.376;2022-08-19T11:41:33;19.70;;;5.68;;
37983;SDS011;61733;50.882;4.376;2022-08-19T11:43:59;11.80;;;6.53;;
37983;SDS011;61733;50.882;4.376;2022-08-19T11:46:30;12.35;;;8.00;;
37983;SDS011;61733;50.882;4.376;2022-08-19T11:48:57;10.25;;;8.63;;
37983;SDS011;61733;50.882;4.376;2022-08-19T11:51:25;21.25;;;8.48;;
37983;SDS011;61733;50.882;4.376;2022-08-19T11:53:53;17.65;;;9.85;;
37983;SDS011;61733;50.882;4.376;2022-08-19T11:56:20;16.13;;;8.98;;
37983;SDS011;61733;50.882;4.376;2022-08-19T11:58:46;14.20;;;8.15;;
37983;SDS011;61733;50.882;4.376;2022-08-19T12:01:17;12.93;;;9.10;;
37983;SDS011;61733;50.882;4.376;2022-08-19T12:03:45;17.20;;;8.27;;
37983;SDS011;61733;50.882;4.376;2022-08-19T12:06:13;16.15;;;9.13;;
37983;SDS011;61733;50.882;4.376;2022-08-19T12:08:41;17.75;;;8.35;;
37983;SDS011;61733;50.882;4.376;2022-08-19T12:11:08;15.23;;;7.35;;
37983;SDS011;61733;50.882;4.376;2022-08-19T12:13:35;12.38;;;6.18;;
37983;SDS011;61733;50.882;4.376;2022-08-19T12:16:06;16.15;;;8.20;;
37983;SDS011;61733;50.882;4.376;2022-08-19T12:18:38;16.73;;;6.60;;
37983;SDS011;61733;50.882;4.376;2022-08-19T12:21:07;10.10;;;6.05;;
37983;SDS011;61733;50.882;4.376;2022-08-19T12:23:35;15.73;;;6.40;;
37983;SDS011;61733;50.882;4.376;2022-08-19T12:26:02;8.77;;;5.13;;
37983;SDS011;61733;50.882;4.376;2022-08-19T12:28:29;9.23;;;4.97;;
37983;SDS011;61733;50.882;4.376;2022-08-19T12:30:55;6.00;;;5.03;;
37983;SDS011;61733;50.882;4.376;2022-08-19T12:33:22;8.85;;;4.72;;
37983;SDS011;61733;50.882;4.376;2022-08-19T12:35:51;12.02;;;5.55;;
37983;SDS011;61733;50.882;4.376;2022-08-19T12:38:17;10.65;;;4.25;;
37983;SDS011;61733;50.882;4.376;2022-08-19T12:40:47;10.02;;;5.28;;
37983;SDS011;61733;50.882;4.376;2022-08-19T12:43:14;7.53;;;3.53;;
37983;SDS011;61733;50.882;4.376;2022-08-19T12:45:41;6.78;;;3.40;;
37983;SDS011;61733;50.882;4.376;2022-08-19T12:48:08;9.25;;;3.17;;
37983;SDS011;61733;50.882;4.376;2022-08-19T12:50:34;5.47;;;3.13;;
37983;SDS011;61733;50.882;4.376;2022-08-19T12:53:00;8.07;;;4.18;;
37983;SDS011;61733;50.882;4.376;2022-08-19T12:55:26;6.45;;;3.50;;
37983;SDS011;61733;50.882;4.376;2022-08-19T12:57:57;7.03;;;3.53;;
37983;SDS011;61733;50.882;4.376;2022-08-19T13:00:22;3.70;;;2.90;;
37983;SDS011;61733;50.882;4.376;2022-08-19T13:02:49;10.27;;;3.33;;
37983;SDS011;61733;50.882;4.376;2022-08-19T13:05:21;7.63;;;3.08;;
37983;SDS011;61733;50.882;4.376;2022-08-19T13:07:49;7.05;;;2.00;;
37983;SDS011;61733;50.882;4.376;2022-08-19T13:10:17;4.13;;;2.00;;
37983;SDS011;61733;50.882;4.376;2022-08-19T13:12:45;6.40;;;2.05;;
37983;SDS011;61733;50.882;4.376;2022-08-19T13:15:12;15.30;;;2.55;;
37983;SDS011;61733;50.882;4.376;2022-08-19T13:17:39;7.78;;;4.15;;
37983;SDS011;61733;50.882;4.376;2022-08-19T13:20:05;9.45;;;2.42;;
37983;SDS011;61733;50.882;4.376;2022-08-19T13:22:35;3.07;;;2.30;;
37983;SDS011;61733;50.882;4.376;2022-08-19T13:25:03;4.63;;;2.10;;
37983;SDS011;61733;50.882;4.376;2022-08-19T13:27:30;3.08;;;2.72;;
37983;SDS011;61733;50.882;4.376;2022-08-19T13:29:56;7.03;;;1.80;;
37983;SDS011;61733;50.882;4.376;2022-08-19T13:32:40;4.47;;;1.83;;
37983;SDS011;61733;50.882;4.376;2022-08-19T13:35:25;3.65;;;1.83;;
37983;SDS011;61733;50.882;4.376;2022-08-19T13:37:51;1.60;;;1.50;;
37983;SDS011;61733;50.882;4.376;2022-08-19T13:40:18;5.40;;;2.00;;
37983;SDS011;61733;50.882;4.376;2022-08-19T13:42:49;2.13;;;1.63;;
37983;SDS011;61733;50.882;4.376;2022-08-19T13:45:18;4.63;;;1.80;;
37983;SDS011;61733;50.882;4.376;2022-08-19T13:47:47;6.20;;;1.90;;
37983;SDS011;61733;50.882;4.376;2022-08-19T13:50:19;2.47;;;2.10;;
37983;SDS011;61733;50.882;4.376;2022-08-19T13:52:47;4.40;;;2.38;;
37983;SDS011;61733;50.882;4.376;2022-08-19T13:55:14;8.07;;;2.10;;
37983;SDS011;61733;50.882;4.376;2022-08-19T13:57:41;9.55;;;1.92;;
37983;SDS011;61733;50.882;4.376;2022-08-19T14:00:08;3.08;;;2.72;;
37983;SDS011;61733;50.882;4.376;2022-08-19T14:02:37;1.85;;;1.73;;
37983;SDS011;61733;50.882;4.376;2022-08-19T14:05:05;4.72;;;2.60;;
37983;SDS011;61733;50.882;4.376;2022-08-19T14:07:34;2.83;;;2.55;;
37983;SDS011;61733;50.882;4.376;2022-08-19T14:10:01;4.65;;;1.73;;
37983;SDS011;61733;50.882;4.376;2022-08-19T14:12:30;6.75;;;2.20;;
37983;SDS011;61733;50.882;4.376;2022-08-19T14:14:57;14.35;;;2.53;;
37983;SDS011;61733;50.882;4.376;2022-08-19T14:17:23;4.85;;;2.08;;
37983;SDS011;61733;50.882;4.376;2022-08-19T14:19:50;8.10;;;2.63;;
37983;SDS011;61733;50.882;4.376;2022-08-19T14:22:22;6.35;;;3.92;;
37983;SDS011;61733;50.882;4.376;2022-08-19T14:24:48;8.75;;;2.30;;
37983;SDS011;61733;50.882;4.376;2022-08-19T14:27:15;6.32;;;2.72;;
37983;SDS011;61733;50.882;4.376;2022-08-19T14:29:41;6.28;;;2.50;;
37983;SDS011;61733;50.882;4.376;2022-08-19T14:32:07;3.70;;;2.42;;
37983;SDS011;61733;50.882;4.376;2022-08-19T14:34:33;3.90;;;2.15;;
37983;SDS011;61733;50.882;4.376;2022-08-19T14:37:02;10.02;;;1.95;;
37983;SDS011;61733;50.882;4.376;2022-08-19T14:39:28;13.80;;;2.20;;
37983;SDS011;61733;50.882;4.376;2022-08-19T14:41:53;2.97;;;1.92;;
37983;SDS011;61733;50.882;4.376;2022-08-19T14:44:19;11.10;;;1.88;;
37983;SDS011;61733;50.882;4.376;2022-08-19T14:46:45;6.05;;;2.42;;
37983;SDS011;61733;50.882;4.376;2022-08-19T14:49:11;3.88;;;1.90;;
37983;SDS011;61733;50.882;4.376;2022-08-19T14:51:37;6.10;;;2.05;;
37983;SDS011;61733;50.882;4.376;2022-08-19T14:54:03;2.22;;;1.67;;
37983;SDS011;61733;50.882;4.376;2022-08-19T14:56:29;4.70;;;1.92;;
37983;SDS011;61733;50.882;4.376;2022-08-19T14:58:55;8.02;;;3.45;;
37983;SDS011;61733;50.882;4.376;2022-08-19T15:01:24;9.20;;;2.20;;
37983;SDS011;61733;50.882;4.376;2022-08-19T15:03:51;3.75;;;2.60;;